Time;durP1;ratioP1;P1;durP2;ratioP2;P2;SDS_P1;SDS_P2;PMS_P1;PMS_P2;Temp;Humidity;BMP_temperature;BMP_pressure;BME280_temperature;BME280_humidity;BME280_pressure;Samples;Min_cycle;Max_cycle;Signal;HPM_P1;HPM_P2
2022/03/03 00:02:21;;;;;;;3.25;0.82;;;20.30;99.90;;;;;;5092639;28;20024;-82
2022/03/03 00:04:48;;;;;;;4.38;1.33;;;20.30;99.90;;;;;;5092874;28;20043;-77
2022/03/03 00:07:18;;;;;;;4.00;1.25;;;20.30;99.90;;;;;;5092857;28;20047;-84
2022/03/03 00:09:45;;;;;;;6.50;1.08;;;20.40;99.90;;;;;;5090447;28;20024;-78
2022/03/03 00:12:13;;;;;;;9.25;1.60;;;20.40;99.90;;;;;;5093056;28;20028;-81
2022/03/03 00:14:40;;;;;;;4.13;1.40;;;20.50;99.90;;;;;;5097011;28;20020;-78
2022/03/03 00:17:08;;;;;;;7.07;1.20;;;20.50;99.90;;;;;;5097297;28;20149;-76
2022/03/03 00:19:35;;;;;;;11.55;1.92;;;20.60;99.90;;;;;;5097427;28;20031;-81
2022/03/03 00:22:03;;;;;;;5.82;1.30;;;20.60;99.90;;;;;;5097071;28;20031;-78
2022/03/03 00:24:30;;;;;;;5.70;1.13;;;20.50;99.90;;;;;;5097021;28;20051;-79
2022/03/03 00:26:58;;;;;;;6.68;1.40;;;20.60;99.90;;;;;;5097460;28;20103;-75
2022/03/03 00:29:25;;;;;;;8.48;1.52;;;20.60;99.90;;;;;;5097137;28;20483;-84
2022/03/03 00:31:52;;;;;;;14.45;2.97;;;20.60;99.90;;;;;;5097139;28;20457;-80
2022/03/03 00:34:20;;;;;;;11.07;2.22;;;20.70;99.90;;;;;;5096905;28;20473;-78
2022/03/03 00:36:50;;;;;;;13.55;2.08;;;20.80;99.90;;;;;;5096782;28;20033;-80
2022/03/03 00:39:17;;;;;;;19.98;2.00;;;20.80;99.90;;;;;;5097039;28;20020;-82
2022/03/03 00:41:45;;;;;;;8.38;2.38;;;20.90;99.90;;;;;;5096860;28;20028;-74
2022/03/03 00:44:12;;;;;;;13.32;1.88;;;20.90;99.90;;;;;;5096448;28;20516;-78
2022/03/03 00:46:40;;;;;;;8.48;1.20;;;20.90;99.90;;;;;;5096836;28;20027;-84
2022/03/03 00:49:10;;;;;;;6.75;1.45;;;20.90;99.90;;;;;;5096738;28;20122;-82
2022/03/03 00:51:37;;;;;;;9.65;2.50;;;20.90;99.90;;;;;;5096858;28;20024;-79
2022/03/03 00:54:05;;;;;;;9.07;1.98;;;20.90;99.90;;;;;;5096769;28;20368;-78
2022/03/03 00:56:33;;;;;;;6.18;1.45;;;20.90;99.90;;;;;;5095188;28;20028;-78
2022/03/03 00:59:00;;;;;;;5.93;1.63;;;20.90;99.90;;;;;;5096691;28;20020;-78
2022/03/03 01:01:27;;;;;;;8.95;1.67;;;20.90;99.90;;;;;;5096545;28;20473;-76
2022/03/03 01:03:55;;;;;;;9.48;1.92;;;20.90;99.90;;;;;;5089240;28;20043;-82
2022/03/03 01:06:22;;;;;;;9.55;1.63;;;20.90;99.90;;;;;;5095515;28;20561;-74
2022/03/03 01:08:49;;;;;;;10.02;1.50;;;21.00;99.90;;;;;;5096414;28;20063;-84
2022/03/03 01:11:17;;;;;;;5.93;1.88;;;21.00;99.90;;;;;;5096111;28;20028;-81
2022/03/03 01:13:44;;;;;;;6.80;1.58;;;21.00;99.90;;;;;;5096077;28;20361;-79
2022/03/03 01:16:11;;;;;;;6.30;1.50;;;21.00;99.90;;;;;;5096292;28;20012;-78
2022/03/03 01:18:39;;;;;;;5.85;1.05;;;21.00;99.90;;;;;;5096531;28;20028;-79
2022/03/03 01:21:06;;;;;;;14.30;1.55;;;21.00;99.90;;;;;;5096116;28;20024;-79
2022/03/03 01:23:33;;;;;;;3.72;0.70;;;21.00;99.90;;;;;;5089206;28;20012;-76
2022/03/03 01:26:00;;;;;;;3.85;1.25;;;21.10;99.90;;;;;;5093529;28;20496;-81
2022/03/03 01:28:28;;;;;;;10.52;2.17;;;21.10;99.90;;;;;;5094302;28;20024;-77
2022/03/03 01:30:55;;;;;;;5.78;1.60;;;21.10;99.90;;;;;;5094314;28;20059;-78
2022/03/03 01:33:22;;;;;;;10.20;1.10;;;21.10;99.90;;;;;;5082479;28;20032;-79
2022/03/03 01:35:50;;;;;;;11.80;1.98;;;21.10;99.90;;;;;;5077505;28;20025;-77
2022/03/03 01:38:17;;;;;;;11.50;2.00;;;21.10;99.90;;;;;;5074460;28;20023;-75
2022/03/03 01:40:44;;;;;;;8.10;1.73;;;21.20;99.90;;;;;;5074813;28;20013;-76
2022/03/03 01:43:12;;;;;;;11.55;1.58;;;21.20;99.90;;;;;;5074775;28;20021;-80
2022/03/03 01:45:40;;;;;;;6.72;1.48;;;21.30;99.90;;;;;;5072927;28;20025;-82
2022/03/03 01:48:08;;;;;;;11.27;1.73;;;21.30;99.90;;;;;;5074363;28;20012;-75
2022/03/03 01:50:35;;;;;;;6.55;1.30;;;21.20;99.90;;;;;;5073238;28;20048;-73
2022/03/03 01:53:03;;;;;;;7.97;1.85;;;21.20;99.90;;;;;;5074433;28;20499;-80
2022/03/03 01:55:32;;;;;;;11.95;1.77;;;21.10;99.90;;;;;;5074269;28;20025;-81
2022/03/03 01:58:02;;;;;;;11.32;1.58;;;21.10;99.90;;;;;;5077181;28;20048;-81
2022/03/03 02:00:30;;;;;;;6.50;1.38;;;21.10;99.90;;;;;;5075993;28;20113;-80
2022/03/03 02:02:57;;;;;;;8.90;1.58;;;21.10;99.90;;;;;;5074402;28;20017;-74
2022/03/03 02:05:24;;;;;;;4.45;1.25;;;21.00;99.90;;;;;;5073859;28;20032;-82
2022/03/03 02:07:52;;;;;;;6.90;0.80;;;21.00;99.90;;;;;;5074119;28;20020;-77
2022/03/03 02:10:19;;;;;;;3.38;0.73;;;21.00;99.90;;;;;;5074284;28;20016;-78
2022/03/03 02:12:46;;;;;;;8.00;1.42;;;21.10;99.90;;;;;;5074241;28;20016;-76
2022/03/03 02:15:18;;;;;;;4.28;1.25;;;21.10;99.90;;;;;;5073756;28;20388;-76
2022/03/03 02:17:46;;;;;;;9.13;1.77;;;21.10;99.90;;;;;;5073847;28;20378;-79
2022/03/03 02:20:21;;;;;;;4.75;1.20;;;21.10;99.90;;;;;;5074044;28;20090;-81
2022/03/03 02:22:49;;;;;;;11.15;0.93;;;21.20;99.90;;;;;;5074148;28;20020;-83
2022/03/03 02:25:17;;;;;;;10.90;1.60;;;21.30;99.90;;;;;;5073550;28;20037;-81
2022/03/03 02:27:48;;;;;;;5.72;1.42;;;21.40;99.90;;;;;;5076612;28;20008;-80
2022/03/03 02:30:18;;;;;;;9.57;1.42;;;21.30;99.90;;;;;;5073360;28;20021;-79
2022/03/03 02:32:48;;;;;;;7.97;1.50;;;21.30;99.90;;;;;;5073866;28;20528;-76
2022/03/03 02:35:16;;;;;;;10.05;1.60;;;21.30;99.90;;;;;;5072065;28;20021;-75
2022/03/03 02:37:46;;;;;;;8.02;1.55;;;21.40;99.90;;;;;;5073583;28;20450;-81
2022/03/03 02:40:20;;;;;;;7.72;1.45;;;21.40;99.90;;;;;;5073623;28;20492;-81
2022/03/03 02:42:52;;;;;;;5.60;1.67;;;21.40;99.90;;;;;;5073564;28;20029;-77
2022/03/03 02:45:21;;;;;;;7.53;1.45;;;21.50;99.90;;;;;;5073212;28;20032;-80
2022/03/03 02:47:50;;;;;;;13.43;2.10;;;21.50;99.90;;;;;;5073524;28;20016;-81
2022/03/03 02:50:20;;;;;;;4.38;1.63;;;21.50;99.90;;;;;;5073299;28;20044;-74
2022/03/03 02:52:48;;;;;;;11.05;2.20;;;21.50;99.90;;;;;;5072489;28;20009;-82
2022/03/03 02:55:15;;;;;;;11.13;2.03;;;21.50;99.90;;;;;;5073415;28;20025;-79
2022/03/03 02:57:55;;;;;;;10.73;1.98;;;21.50;99.90;;;;;;5073245;28;20015;-77
2022/03/03 03:00:38;;;;;;;5.47;1.10;;;21.50;99.90;;;;;;5073271;28;20035;-76
2022/03/03 03:03:09;;;;;;;11.02;1.55;;;21.60;99.90;;;;;;5073108;28;20021;-81
2022/03/03 03:05:37;;;;;;;5.47;1.27;;;21.50;99.90;;;;;;5072960;28;20480;-80
2022/03/03 03:08:05;;;;;;;8.05;1.48;;;21.50;99.90;;;;;;5073084;28;20447;-81
2022/03/03 03:10:32;;;;;;;19.38;1.88;;;21.60;99.90;;;;;;5073073;28;20085;-80
2022/03/03 03:13:00;;;;;;;7.55;1.73;;;21.60;99.90;;;;;;5072979;28;20483;-76
2022/03/03 03:15:27;;;;;;;7.93;1.67;;;21.70;99.90;;;;;;5072978;28;20184;-76
2022/03/03 03:17:54;;;;;;;10.93;2.00;;;21.80;99.90;;;;;;5072755;28;20016;-80
2022/03/03 03:20:22;;;;;;;5.82;1.38;;;21.80;99.90;;;;;;5072966;28;20485;-79
2022/03/03 03:22:49;;;;;;;5.40;1.48;;;21.90;99.90;;;;;;5072405;28;20350;-81
2022/03/03 03:25:16;;;;;;;7.25;1.35;;;21.90;99.90;;;;;;5072674;28;20036;-79
2022/03/03 03:27:44;;;;;;;7.38;1.48;;;21.90;99.90;;;;;;5072607;28;20477;-80
2022/03/03 03:30:13;;;;;;;5.90;1.42;;;21.90;99.90;;;;;;5072060;28;20032;-78
2022/03/03 03:32:41;;;;;;;9.95;2.45;;;22.00;99.90;;;;;;5072388;28;20530;-78
2022/03/03 03:35:09;;;;;;;3.08;1.00;;;22.00;99.90;;;;;;5072177;28;20052;-79
2022/03/03 03:37:37;;;;;;;6.05;1.05;;;22.00;99.90;;;;;;5072238;28;20027;-80
2022/03/03 03:40:07;;;;;;;9.10;1.05;;;21.90;99.90;;;;;;5072595;28;20052;-78
2022/03/03 03:42:34;;;;;;;7.82;1.25;;;21.90;99.90;;;;;;5073462;28;20444;-74
2022/03/03 03:45:03;;;;;;;5.80;1.25;;;21.90;99.90;;;;;;5072510;28;20032;-78
2022/03/03 03:47:30;;;;;;;4.70;1.42;;;21.90;99.90;;;;;;5070720;28;20020;-77
2022/03/03 03:50:02;;;;;;;6.60;1.42;;;21.90;99.90;;;;;;5071652;28;20055;-79
2022/03/03 03:52:30;;;;;;;11.70;1.38;;;21.90;99.90;;;;;;5071934;28;20036;-79
2022/03/03 03:54:57;;;;;;;9.38;1.83;;;21.80;99.90;;;;;;5071921;28;20040;-75
2022/03/03 03:57:25;;;;;;;4.75;1.77;;;21.80;99.90;;;;;;5069976;28;20035;-76
2022/03/03 03:59:52;;;;;;;7.80;1.75;;;21.80;99.90;;;;;;5077417;28;20052;-79
2022/03/03 04:02:20;;;;;;;8.15;1.00;;;21.80;99.90;;;;;;5075663;28;20021;-79
2022/03/03 04:04:47;;;;;;;12.23;2.28;;;21.80;99.90;;;;;;5072295;28;20036;-77
2022/03/03 04:07:14;;;;;;;9.82;2.13;;;21.80;99.90;;;;;;5072086;28;20073;-82
2022/03/03 04:09:42;;;;;;;11.25;2.50;;;21.90;99.90;;;;;;5072363;28;20028;-80
2022/03/03 04:12:09;;;;;;;10.38;2.40;;;22.00;99.90;;;;;;5072726;28;20013;-82
2022/03/03 04:14:37;;;;;;;13.55;2.20;;;22.00;99.90;;;;;;5072655;28;20032;-83
2022/03/03 04:17:04;;;;;;;13.52;2.08;;;22.10;99.90;;;;;;5071379;28;20484;-73
2022/03/03 04:19:32;;;;;;;11.48;1.20;;;22.00;99.90;;;;;;5071497;28;20031;-82
2022/03/03 04:21:59;;;;;;;5.45;1.38;;;21.80;99.90;;;;;;5072836;28;20469;-77
2022/03/03 04:24:26;;;;;;;7.05;2.08;;;21.80;99.90;;;;;;5072532;28;20036;-75
2022/03/03 04:26:54;;;;;;;12.88;1.65;;;21.90;99.90;;;;;;5072742;28;20566;-74
2022/03/03 04:29:21;;;;;;;9.02;1.92;;;22.00;99.90;;;;;;5072775;28;20119;-78
2022/03/03 04:31:51;;;;;;;17.27;2.25;;;21.90;99.90;;;;;;5073012;28;20017;-80
2022/03/03 04:34:19;;;;;;;4.32;1.52;;;22.00;99.90;;;;;;5074070;28;20020;-81
2022/03/03 04:36:47;;;;;;;10.70;2.70;;;22.00;99.90;;;;;;5106774;28;20038;-76
2022/03/03 04:39:15;;;;;;;6.32;1.50;;;22.10;99.90;;;;;;5106550;28;20050;-76
2022/03/03 04:41:43;;;;;;;9.30;2.15;;;21.90;99.90;;;;;;5105576;28;20503;-83
2022/03/03 04:44:10;;;;;;;6.20;1.00;;;21.80;99.90;;;;;;5109067;28;20054;-77
2022/03/03 04:46:37;;;;;;;12.57;1.85;;;21.80;99.90;;;;;;5110766;28;20469;-73
2022/03/03 04:49:05;;;;;;;9.50;1.58;;;21.70;99.90;;;;;;5103275;28;20048;-75
2022/03/03 04:51:36;;;;;;;7.63;1.50;;;21.60;99.90;;;;;;5107567;28;20075;-80
2022/03/03 04:54:08;;;;;;;6.47;2.30;;;21.50;99.90;;;;;;5109388;28;20471;-74
2022/03/03 04:56:38;;;;;;;11.45;1.40;;;21.40;99.90;;;;;;5106669;28;20024;-74
2022/03/03 04:59:06;;;;;;;8.82;1.35;;;21.40;99.90;;;;;;5108162;28;20028;-74
2022/03/03 05:01:33;;;;;;;5.60;0.90;;;21.40;99.90;;;;;;5108540;28;20019;-79
2022/03/03 05:04:00;;;;;;;3.72;1.27;;;21.30;99.90;;;;;;5113553;28;20476;-74
2022/03/03 05:06:28;;;;;;;5.05;1.33;;;21.40;99.90;;;;;;5092927;28;20036;-76
2022/03/03 05:08:55;;;;;;;15.52;2.53;;;21.50;99.90;;;;;;5116251;28;20073;-84
2022/03/03 05:11:23;;;;;;;12.05;1.92;;;21.50;99.90;;;;;;5116151;28;20023;-77
2022/03/03 05:13:50;;;;;;;13.25;2.33;;;21.60;99.90;;;;;;5116185;28;20016;-76
2022/03/03 05:16:18;;;;;;;14.23;2.17;;;21.70;99.90;;;;;;5115938;28;20020;-81
2022/03/03 05:18:45;;;;;;;13.27;2.45;;;21.70;99.90;;;;;;5115937;28;20020;-74
2022/03/03 05:21:12;;;;;;;13.68;2.42;;;21.60;99.90;;;;;;5110867;28;20045;-76
2022/03/03 05:23:40;;;;;;;13.68;2.95;;;21.60;99.90;;;;;;5113269;28;20480;-74
2022/03/03 05:26:07;;;;;;;15.45;3.15;;;21.50;99.90;;;;;;5098712;28;20036;-74
2022/03/03 05:28:34;;;;;;;8.13;1.73;;;21.50;99.90;;;;;;5095258;28;20016;-73
2022/03/03 05:31:05;;;;;;;18.15;3.10;;;21.40;99.90;;;;;;5094946;28;20087;-78
2022/03/03 05:33:34;;;;;;;13.57;2.25;;;21.40;99.90;;;;;;5096465;28;20506;-78
2022/03/03 05:36:07;;;;;;;14.80;3.28;;;21.40;99.90;;;;;;5107312;28;20379;-73
2022/03/03 05:38:35;;;;;;;20.27;3.30;;;21.50;99.90;;;;;;5103074;28;20507;-72
2022/03/03 05:41:04;;;;;;;15.45;3.25;;;21.50;99.90;;;;;;5097401;28;20028;-83
2022/03/03 05:43:33;;;;;;;15.65;3.10;;;21.50;99.90;;;;;;5100559;28;20530;-72
2022/03/03 05:46:00;;;;;;;13.55;2.13;;;21.50;99.90;;;;;;5108416;28;20031;-73
2022/03/03 05:48:27;;;;;;;11.85;2.53;;;21.50;99.90;;;;;;5111591;28;20055;-81
2022/03/03 05:50:56;;;;;;;14.70;2.65;;;21.50;99.90;;;;;;5112148;28;20042;-82
2022/03/03 05:53:24;;;;;;;14.40;1.98;;;21.40;99.90;;;;;;5111862;28;20106;-74
2022/03/03 05:55:58;;;;;;;20.75;2.95;;;21.50;99.90;;;;;;5109822;28;20384;-73
2022/03/03 05:58:41;;;;;;;11.23;2.92;;;21.40;99.90;;;;;;5111221;28;20052;-73
2022/03/03 06:01:11;;;;;;;14.40;2.50;;;21.30;99.90;;;;;;5110776;28;20012;-74
2022/03/03 06:03:39;;;;;;;10.70;2.72;;;21.30;99.90;;;;;;5110532;28;20016;-73
2022/03/03 06:06:16;;;;;;;15.52;2.45;;;21.30;99.90;;;;;;5115030;28;20499;-73
2022/03/03 06:09:17;;;;;;;11.40;2.42;;;21.30;99.90;;;;;;5111494;28;20055;-78
2022/03/03 06:12:00;;;;;;;11.00;2.22;;;21.30;99.90;;;;;;5111419;27;20133;-75
2022/03/03 06:14:41;;;;;;;8.90;2.28;;;21.30;99.90;;;;;;5104950;28;20016;-73
2022/03/03 06:17:09;;;;;;;14.73;2.42;;;21.30;99.90;;;;;;5112448;28;20383;-87
2022/03/03 06:19:42;;;;;;;14.45;2.92;;;21.30;99.90;;;;;;5107527;28;20372;-77
2022/03/03 06:22:10;;;;;;;21.60;3.30;;;21.30;99.90;;;;;;5114009;28;20020;-80
2022/03/03 06:24:38;;;;;;;16.75;2.45;;;21.40;99.90;;;;;;5109121;28;20030;-88
2022/03/03 06:27:07;;;;;;;14.30;2.85;;;21.40;99.90;;;;;;5114507;27;20464;-75
2022/03/03 06:29:34;;;;;;;12.02;2.83;;;21.40;99.90;;;;;;5114294;28;20024;-73
2022/03/03 06:32:03;;;;;;;14.48;3.30;;;21.40;99.90;;;;;;5114722;27;20476;-73
2022/03/03 06:34:30;;;;;;;27.67;4.80;;;21.40;99.90;;;;;;5114711;28;20023;-73
2022/03/03 06:36:58;;;;;;;16.23;3.50;;;21.40;99.90;;;;;;5109186;28;20028;-73
2022/03/03 06:39:26;;;;;;;13.77;3.30;;;21.50;99.90;;;;;;5105257;28;20028;-73
2022/03/03 06:41:53;;;;;;;14.82;3.67;;;21.50;99.90;;;;;;5103212;28;20027;-77
2022/03/03 06:44:21;;;;;;;21.30;3.53;;;21.60;99.90;;;;;;5103530;28;20024;-81
2022/03/03 06:46:48;;;;;;;24.63;4.53;;;21.60;99.90;;;;;;5102743;28;20047;-75
2022/03/03 06:49:16;;;;;;;17.73;2.83;;;21.60;99.90;;;;;;5104435;28;20526;-78
2022/03/03 06:51:48;;;;;;;14.68;1.40;;;21.60;99.90;;;;;;5103013;28;20024;-80
2022/03/03 06:54:19;;;;;;;8.13;2.22;;;21.50;99.90;;;;;;5103423;28;20042;-78
2022/03/03 06:56:52;;;;;;;11.48;2.08;;;21.30;99.90;;;;;;5101186;28;20358;-82
2022/03/03 06:59:25;;;;;;;14.20;2.33;;;21.20;99.90;;;;;;5101485;28;20020;-80
2022/03/03 07:01:54;;;;;;;12.10;2.78;;;21.10;99.90;;;;;;5102447;28;20027;-75
2022/03/03 07:04:23;;;;;;;16.20;3.00;;;21.00;99.90;;;;;;5103106;28;20028;-74
2022/03/03 07:06:51;;;;;;;16.58;2.65;;;21.00;99.90;;;;;;5101101;28;20031;-80
2022/03/03 07:09:19;;;;;;;13.63;2.88;;;21.00;99.90;;;;;;5100860;28;20047;-76
2022/03/03 07:11:48;;;;;;;13.25;3.25;;;21.00;99.90;;;;;;5100740;28;20016;-73
2022/03/03 07:14:16;;;;;;;12.00;2.83;;;21.10;99.90;;;;;;5083084;28;20521;-74
2022/03/03 07:16:52;;;;;;;14.23;2.90;;;21.00;99.90;;;;;;5092319;28;20136;-74
2022/03/03 07:19:40;;;;;;;19.33;3.63;;;21.10;99.90;;;;;;5090777;28;20012;-73
2022/03/03 07:22:18;;;;;;;11.40;2.72;;;21.10;99.90;;;;;;5090320;28;20047;-73
2022/03/03 07:25:01;;;;;;;17.35;3.67;;;21.10;99.90;;;;;;5076865;28;20033;-79
2022/03/03 07:27:29;;;;;;;24.25;3.38;;;21.10;99.90;;;;;;5075372;28;20024;-82
2022/03/03 07:30:08;;;;;;;19.73;2.65;;;21.10;99.90;;;;;;5071882;28;20034;-77
2022/03/03 07:32:39;;;;;;;17.98;4.28;;;21.10;99.90;;;;;;5072554;28;20012;-83
2022/03/03 07:35:12;;;;;;;19.02;3.55;;;21.20;99.90;;;;;;5071497;28;20025;-83
2022/03/03 07:37:48;;;;;;;24.88;4.00;;;21.20;99.90;;;;;;5072245;28;20085;-86
2022/03/03 07:40:15;;;;;;;19.63;3.97;;;21.30;99.90;;;;;;5072129;28;20013;-80
2022/03/03 07:42:44;;;;;;;12.25;2.38;;;21.20;99.90;;;;;;5078103;28;20042;-86
2022/03/03 07:45:12;;;;;;;16.35;3.25;;;21.20;99.90;;;;;;5071808;28;20051;-73
2022/03/03 07:47:40;;;;;;;19.58;4.05;;;21.20;99.90;;;;;;5072024;28;20541;-79
2022/03/03 07:50:08;;;;;;;19.10;3.47;;;21.20;99.90;;;;;;5071700;28;20051;-81
2022/03/03 07:52:36;;;;;;;19.88;4.03;;;21.10;99.90;;;;;;5074350;28;20061;-86
2022/03/03 07:55:04;;;;;;;17.02;3.05;;;21.10;99.90;;;;;;5089539;28;20050;-76
2022/03/03 07:57:44;;;;;;;18.98;3.55;;;21.10;99.90;;;;;;5090625;28;20520;-78
2022/03/03 08:00:13;;;;;;;11.30;2.08;;;21.10;99.90;;;;;;5091313;28;20034;-81
2022/03/03 08:02:43;;;;;;;17.90;3.28;;;21.10;99.90;;;;;;5091554;28;20043;-73
2022/03/03 08:05:11;;;;;;;20.73;3.05;;;21.10;99.90;;;;;;5091604;28;20032;-83
2022/03/03 08:07:47;;;;;;;15.32;3.05;;;21.10;99.90;;;;;;5092036;28;20810;-86
2022/03/03 08:10:15;;;;;;;17.33;3.22;;;21.10;99.90;;;;;;5091436;28;20035;-79
2022/03/03 08:12:43;;;;;;;12.13;2.30;;;21.10;99.90;;;;;;5091511;28;20020;-81
2022/03/03 08:15:12;;;;;;;12.77;2.47;;;21.00;99.90;;;;;;5091832;28;20030;-74
2022/03/03 08:17:40;;;;;;;14.05;2.90;;;21.00;99.90;;;;;;5088781;28;20070;-81
2022/03/03 08:20:09;;;;;;;22.45;3.10;;;21.00;99.90;;;;;;5092937;28;20027;-72
2022/03/03 08:22:39;;;;;;;15.40;2.72;;;21.00;99.90;;;;;;5091791;28;20473;-80
2022/03/03 08:25:08;;;;;;;23.42;3.30;;;21.00;99.90;;;;;;5091818;28;20043;-83
2022/03/03 08:27:37;;;;;;;11.90;2.40;;;21.00;99.90;;;;;;5092236;28;20020;-72
2022/03/03 08:30:06;;;;;;;9.63;2.17;;;21.00;99.90;;;;;;5073055;28;20024;-84
2022/03/03 08:32:38;;;;;;;8.95;2.60;;;21.00;99.90;;;;;;5070846;28;20017;-84
2022/03/03 08:35:09;;;;;;;13.40;3.55;;;21.00;99.90;;;;;;5074646;28;20025;-86
2022/03/03 08:37:39;;;;;;;10.35;2.78;;;21.00;99.90;;;;;;5075386;28;20023;-79
2022/03/03 08:40:10;;;;;;;10.60;2.25;;;21.00;99.90;;;;;;5081375;28;20111;-72
2022/03/03 08:42:56;;;;;;;14.82;3.67;;;21.00;99.90;;;;;;5082428;28;20049;-76
2022/03/03 08:45:28;;;;;;;12.05;2.30;;;21.00;99.90;;;;;;5076837;28;20060;-86
2022/03/03 08:48:08;;;;;;;9.60;1.83;;;21.00;99.90;;;;;;5078268;28;20031;-79
2022/03/03 08:50:41;;;;;;;16.05;2.95;;;21.00;99.90;;;;;;5074809;28;20366;-80
2022/03/03 08:53:10;;;;;;;7.68;1.63;;;21.00;99.90;;;;;;5080067;28;20020;-77
2022/03/03 08:55:39;;;;;;;6.13;1.20;;;21.00;99.90;;;;;;5077283;28;20022;-78
2022/03/03 08:58:08;;;;;;;5.93;1.38;;;21.00;99.90;;;;;;5077161;28;20034;-80
2022/03/03 09:00:38;;;;;;;8.52;1.88;;;21.00;99.90;;;;;;5080352;28;20469;-78
2022/03/03 09:03:06;;;;;;;13.57;1.88;;;20.90;99.90;;;;;;5074851;28;20111;-78
2022/03/03 09:05:36;;;;;;;6.50;1.75;;;20.90;99.90;;;;;;5076862;28;20032;-72
2022/03/03 09:08:04;;;;;;;10.55;1.98;;;20.80;99.90;;;;;;5075986;28;20043;-83
2022/03/03 09:10:31;;;;;;;11.38;1.70;;;20.90;99.90;;;;;;5073545;28;20395;-82
2022/03/03 09:13:00;;;;;;;11.77;2.45;;;20.80;99.90;;;;;;5079367;28;20082;-72
2022/03/03 09:15:33;;;;;;;9.63;2.25;;;20.80;99.90;;;;;;5074657;28;20020;-84
2022/03/03 09:18:01;;;;;;;16.38;2.67;;;20.80;99.90;;;;;;5076036;28;20103;-84
2022/03/03 09:20:29;;;;;;;6.70;2.22;;;20.80;99.90;;;;;;5074322;28;20033;-76
2022/03/03 09:22:56;;;;;;;10.98;1.90;;;20.80;99.90;;;;;;5074256;28;20013;-81
2022/03/03 09:25:24;;;;;;;9.32;1.67;;;20.70;99.90;;;;;;5078913;28;20485;-76
2022/03/03 09:27:52;;;;;;;7.20;1.40;;;20.70;99.90;;;;;;5074458;28;20347;-77
2022/03/03 09:30:21;;;;;;;11.63;1.83;;;20.70;99.90;;;;;;5074567;28;20485;-77
2022/03/03 09:32:49;;;;;;;9.10;1.75;;;20.70;99.90;;;;;;5073684;28;20028;-73
2022/03/03 09:35:17;;;;;;;8.73;1.92;;;20.70;99.90;;;;;;5074249;28;20032;-78
2022/03/03 09:37:45;;;;;;;15.30;2.25;;;20.70;99.90;;;;;;5079536;28;20385;-75
2022/03/03 09:40:13;;;;;;;7.68;1.63;;;20.70;99.90;;;;;;5081440;28;20074;-77
2022/03/03 09:42:41;;;;;;;19.98;2.38;;;20.70;99.90;;;;;;5082576;28;20540;-82
2022/03/03 09:45:11;;;;;;;10.38;2.35;;;20.70;99.90;;;;;;5073083;28;20044;-83
2022/03/03 09:47:39;;;;;;;18.80;2.50;;;20.70;99.90;;;;;;5091889;28;20020;-72
2022/03/03 09:50:08;;;;;;;9.68;2.22;;;20.70;99.90;;;;;;5087058;28;20040;-84
2022/03/03 09:52:36;;;;;;;10.55;1.80;;;20.70;99.90;;;;;;5074677;28;20062;-78
2022/03/03 09:55:05;;;;;;;8.55;2.60;;;20.70;99.90;;;;;;5076387;28;20139;-79
2022/03/03 09:57:35;;;;;;;16.35;3.15;;;20.70;99.90;;;;;;5074523;28;20477;-83
2022/03/03 10:00:05;;;;;;;15.85;2.60;;;20.70;99.90;;;;;;5072703;28;20104;-83
2022/03/03 10:02:33;;;;;;;15.45;1.83;;;20.70;99.90;;;;;;5073062;28;20465;-75
2022/03/03 10:05:00;;;;;;;10.15;1.92;;;20.70;99.90;;;;;;5073780;28;20044;-73
2022/03/03 10:07:28;;;;;;;5.97;1.58;;;20.70;99.90;;;;;;5074180;28;20025;-77
2022/03/03 10:10:00;;;;;;;14.80;2.25;;;20.70;99.90;;;;;;5074336;28;20022;-75
2022/03/03 10:12:30;;;;;;;9.25;1.33;;;20.70;99.90;;;;;;5073640;28;20028;-84
2022/03/03 10:14:59;;;;;;;13.10;2.38;;;20.60;99.90;;;;;;5081159;28;20024;-84
2022/03/03 10:17:37;;;;;;;9.75;1.33;;;20.70;99.90;;;;;;5078713;28;20116;-82
2022/03/03 10:20:07;;;;;;;16.48;2.13;;;20.70;99.90;;;;;;5089221;28;20079;-72
2022/03/03 10:22:57;;;;;;;11.10;2.17;;;20.70;99.90;;;;;;5073817;28;20012;-82
2022/03/03 10:25:37;;;;;;;14.60;2.53;;;20.70;99.90;;;;;;5090198;28;20090;-81
2022/03/03 10:28:15;;;;;;;10.15;1.50;;;20.70;99.90;;;;;;5094413;28;20020;-83
2022/03/03 10:31:02;;;;;;;10.18;1.45;;;20.60;99.90;;;;;;5086885;28;20032;-82
2022/03/03 10:33:32;;;;;;;6.15;1.60;;;20.60;99.90;;;;;;5094115;28;20020;-82
2022/03/03 10:36:15;;;;;;;11.30;1.30;;;20.60;99.90;;;;;;5093917;28;20034;-77
2022/03/03 10:39:06;;;;;;;11.13;1.77;;;20.50;99.90;;;;;;5079513;28;20024;-74
2022/03/03 10:41:33;;;;;;;7.05;1.77;;;20.50;99.90;;;;;;5094092;28;20036;-79
2022/03/03 10:44:10;;;;;;;7.90;1.45;;;20.50;99.90;;;;;;5094237;28;20086;-82
2022/03/03 10:46:40;;;;;;;8.23;2.17;;;20.50;99.90;;;;;;5087230;28;20041;-81
2022/03/03 10:49:22;;;;;;;6.28;1.58;;;20.50;99.90;;;;;;5074978;28;20040;-77
2022/03/03 10:51:50;;;;;;;11.45;1.88;;;20.50;99.90;;;;;;5072525;28;21680;-83
2022/03/03 10:54:18;;;;;;;7.88;1.75;;;20.50;99.90;;;;;;5081814;28;20023;-74
2022/03/03 10:56:50;;;;;;;9.32;2.15;;;20.50;99.90;;;;;;5072601;28;20465;-82
2022/03/03 10:59:25;;;;;;;8.63;1.58;;;20.50;99.90;;;;;;5074279;28;20024;-81
2022/03/03 11:01:53;;;;;;;9.38;1.98;;;20.50;99.90;;;;;;5072895;28;20107;-83
2022/03/03 11:04:26;;;;;;;14.38;1.92;;;20.50;99.90;;;;;;5072358;28;20077;-78
2022/03/03 11:06:54;;;;;;;9.27;1.77;;;20.50;99.90;;;;;;5086723;28;20144;-82
2022/03/03 11:09:22;;;;;;;10.93;2.40;;;20.50;99.90;;;;;;5090124;28;20039;-79
2022/03/03 11:11:50;;;;;;;9.32;1.95;;;20.50;99.90;;;;;;5091967;28;20361;-82
2022/03/03 11:14:19;;;;;;;9.27;2.00;;;20.50;99.90;;;;;;5090397;28;20046;-81
2022/03/03 11:16:48;;;;;;;11.82;2.63;;;20.50;99.90;;;;;;5091851;28;20027;-82
2022/03/03 11:19:16;;;;;;;8.73;1.70;;;20.50;99.90;;;;;;5080350;28;20023;-76
2022/03/03 11:21:43;;;;;;;11.82;2.20;;;20.50;99.90;;;;;;5092468;28;20046;-75
2022/03/03 11:24:18;;;;;;;10.27;2.05;;;20.50;99.90;;;;;;5092610;28;20015;-76
2022/03/03 11:26:48;;;;;;;14.68;1.92;;;20.50;99.90;;;;;;5089048;28;20544;-75
2022/03/03 11:29:23;;;;;;;10.23;1.63;;;20.50;99.90;;;;;;5092136;28;20015;-79
2022/03/03 11:32:08;;;;;;;7.25;2.45;;;20.60;99.90;;;;;;5092771;28;20020;-80
2022/03/03 11:34:36;;;;;;;12.85;2.40;;;20.50;99.90;;;;;;5090981;28;20028;-79
2022/03/03 11:37:24;;;;;;;10.13;2.08;;;20.60;99.90;;;;;;5092387;28;20027;-75
2022/03/03 11:40:03;;;;;;;17.00;2.70;;;20.70;99.90;;;;;;5082500;28;20016;-80
2022/03/03 11:42:39;;;;;;;12.35;2.53;;;20.70;99.90;;;;;;5089002;28;20038;-76
2022/03/03 11:45:13;;;;;;;13.23;2.10;;;20.70;99.90;;;;;;5080338;28;20480;-80
2022/03/03 11:47:46;;;;;;;14.63;2.53;;;20.70;99.90;;;;;;5082143;28;20033;-76
2022/03/03 11:50:17;;;;;;;14.20;2.70;;;20.70;99.90;;;;;;5075342;28;20385;-74
2022/03/03 11:52:54;;;;;;;10.95;2.20;;;20.70;99.90;;;;;;5071931;28;20021;-79
2022/03/03 11:55:47;;;;;;;9.80;2.83;;;20.70;99.90;;;;;;5071205;28;20426;-82
2022/03/03 11:58:28;;;;;;;20.70;3.65;;;20.70;99.90;;;;;;5072004;28;20048;-75
2022/03/03 12:01:03;;;;;;;9.63;1.88;;;20.70;99.90;;;;;;5071901;28;20074;-77
2022/03/03 12:03:30;;;;;;;;;;;20.70;99.90;;;;;;5072356;28;20044;-74
2022/03/03 12:06:14;;;;;;;21.33;3.85;;;20.70;99.90;;;;;;5072138;28;20011;-75
2022/03/03 12:08:43;;;;;;;13.27;2.50;;;20.70;99.90;;;;;;5071747;28;20020;-77
2022/03/03 12:11:15;;;;;;;21.13;3.25;;;20.70;99.90;;;;;;5071951;28;20020;-78
2022/03/03 12:13:50;;;;;;;15.40;4.07;;;20.70;99.90;;;;;;5071962;28;20385;-75
2022/03/03 12:16:25;;;;;;;9.93;2.40;;;20.80;99.90;;;;;;5071655;28;20492;-77
2022/03/03 12:18:56;;;;;;;18.48;3.10;;;20.70;99.90;;;;;;5071803;28;20029;-82
2022/03/03 12:22:01;;;;;;;18.42;4.07;;;20.80;99.90;;;;;;5072637;28;20094;-75
2022/03/03 12:24:32;;;;;;;11.30;3.25;;;20.80;99.90;;;;;;5049316;28;20143;-79
2022/03/03 12:27:07;;;;;;;9.93;2.50;;;20.80;99.90;;;;;;5071752;28;20393;-81
2022/03/03 12:29:48;;;;;;;8.93;2.53;;;20.80;99.90;;;;;;5072058;28;20055;-79
2022/03/03 12:32:39;;;;;;;13.98;2.97;;;20.80;99.90;;;;;;5090249;28;20382;-81
2022/03/03 12:35:29;;;;;;;14.20;2.95;;;20.80;99.90;;;;;;5088780;28;20373;-74
2022/03/03 12:38:04;;;;;;;13.55;3.35;;;20.80;99.90;;;;;;5089734;28;20431;-81
2022/03/03 12:40:33;;;;;;;18.20;2.83;;;20.80;99.90;;;;;;5091613;28;20016;-82
2022/03/03 12:43:01;;;;;;;13.38;2.95;;;20.80;99.90;;;;;;5092094;28;20028;-76
2022/03/03 12:45:31;;;;;;;13.48;3.40;;;20.80;99.90;;;;;;5091768;28;20500;-78
2022/03/03 12:47:59;;;;;;;13.35;3.25;;;20.80;99.90;;;;;;5090776;28;20372;-79
2022/03/03 12:50:29;;;;;;;15.90;3.53;;;20.80;99.90;;;;;;5092406;28;20039;-84
2022/03/03 12:53:05;;;;;;;20.38;4.40;;;20.80;99.90;;;;;;5092623;28;20009;-82
2022/03/03 12:55:43;;;;;;;16.73;2.80;;;20.90;99.90;;;;;;5089746;28;20016;-81
2022/03/03 12:58:12;;;;;;;8.25;2.95;;;20.80;99.90;;;;;;5089510;28;20459;-74